Time;durP1;ratioP1;P1;durP2;ratioP2;P2;SDS_P1;SDS_P2;PMS_P1;PMS_P2;Temp;Humidity;BMP_temperature;BMP_pressure;BME280_temperature;BME280_humidity;BME280_pressure;Samples;Min_cycle;Max_cycle;Signal;HPM_P1;HPM_P2
2022/05/15 00:00:44;;;;;;;8.55;7.75;;;;;;;12.17;100.00;100497.53;1692176;84;21094;-83
2022/05/15 00:03:15;;;;;;;9.87;7.63;;;;;;;12.14;100.00;100499.09;1692125;84;21055;-83
2022/05/15 00:05:44;;;;;;;7.37;6.70;;;;;;;12.11;100.00;100494.14;1655084;85;22789;-86
2022/05/15 00:08:12;;;;;;;8.28;7.40;;;;;;;12.07;100.00;100494.03;1692768;83;21619;-85
2022/05/15 00:10:43;;;;;;;10.20;7.78;;;;;;;12.03;100.00;100496.56;1692357;84;21552;-85
2022/05/15 00:13:11;;;;;;;7.95;7.10;;;;;;;11.97;100.00;100489.61;1692591;84;21618;-84
2022/05/15 00:15:40;;;;;;;8.63;7.80;;;;;;;11.95;100.00;100493.23;1692869;84;21627;-83
2022/05/15 00:18:09;;;;;;;9.65;7.65;;;;;;;11.93;100.00;100503.81;1692359;84;21129;-82
2022/05/15 00:20:39;;;;;;;8.75;7.40;;;;;;;11.88;100.00;100491.64;1692375;84;21071;-83
2022/05/15 00:23:09;;;;;;;8.23;7.50;;;;;;;11.86;100.00;100503.16;1692891;84;21039;-82
2022/05/15 00:25:38;;;;;;;9.23;7.67;;;;;;;11.81;100.00;100497.83;1693122;83;21069;-82
2022/05/15 00:28:06;;;;;;;8.90;7.15;;;;;;;11.79;100.00;100501.03;1658052;85;21070;-86
2022/05/15 00:30:37;;;;;;;8.00;7.22;;;;;;;11.78;100.00;100502.47;1657371;85;21034;-84
2022/05/15 00:33:06;;;;;;;7.87;6.83;;;;;;;11.76;100.00;100499.16;1657233;85;21019;-84
2022/05/15 00:35:35;;;;;;;7.95;7.25;;;;;;;11.75;100.00;100510.53;1657576;83;21595;-84
2022/05/15 00:38:06;;;;;;;7.50;6.70;;;;;;;11.72;100.00;100515.53;1657147;85;48254;-84
2022/05/15 00:40:38;;;;;;;7.35;6.65;;;;;;;11.72;100.00;100519.94;1657215;85;21086;-83
2022/05/15 00:43:10;;;;;;;7.45;6.40;;;;;;;11.70;100.00;100521.83;1642943;86;21269;-84
2022/05/15 00:45:39;;;;;;;7.87;6.72;;;;;;;11.73;100.00;100528.12;1643308;85;21031;-83
2022/05/15 00:48:06;;;;;;;9.68;7.30;;;;;;;11.71;100.00;100527.41;1657529;85;21027;-84
2022/05/15 00:50:37;;;;;;;8.50;7.65;;;;;;;11.66;100.00;100522.06;1657395;85;21039;-85
2022/05/15 00:53:08;;;;;;;8.85;7.40;;;;;;;11.61;100.00;100526.84;1657239;85;21067;-85
2022/05/15 00:55:45;;;;;;;8.25;7.45;;;;;;;11.55;100.00;100519.52;1652960;85;21066;-85
2022/05/15 00:58:35;;;;;;;8.28;7.47;;;;;;;11.49;100.00;100516.93;1657184;85;21024;-84
2022/05/15 01:01:05;;;;;;;9.50;7.28;;;;;;;11.43;100.00;100524.41;1657296;85;21031;-83
2022/05/15 01:03:33;;;;;;;10.53;7.03;;;;;;;11.37;100.00;100527.05;1657392;85;21027;-84
2022/05/15 01:06:01;;;;;;;7.85;6.97;;;;;;;11.32;100.00;100526.57;1657349;85;21556;-83
2022/05/15 01:08:30;;;;;;;7.65;6.95;;;;;;;11.26;100.00;100529.19;1657117;85;22027;-84
2022/05/15 01:11:05;;;;;;;8.25;7.42;;;;;;;11.21;100.00;100531.34;1657192;85;21695;-83
2022/05/15 01:13:34;;;;;;;9.48;7.62;;;;;;;11.17;100.00;100537.76;1657098;85;21042;-84
2022/05/15 01:16:05;;;;;;;8.45;7.53;;;;;;;11.16;100.00;100534.80;1657265;85;21106;-84
2022/05/15 01:18:35;;;;;;;7.97;7.17;;;;;;;11.13;100.00;100537.63;1645737;85;21149;-84
2022/05/15 01:21:19;;;;;;;8.30;7.37;;;;;;;11.08;100.00;100545.80;1657092;85;21111;-84
2022/05/15 01:23:46;;;;;;;8.63;7.22;;;;;;;11.03;100.00;100547.95;1637246;85;21104;-84
2022/05/15 01:26:14;;;;;;;7.40;6.70;;;;;;;10.98;100.00;100549.62;1657226;85;21559;-83
2022/05/15 01:28:45;;;;;;;7.25;6.50;;;;;;;10.96;100.00;100552.80;1656772;85;21375;-83
2022/05/15 01:31:13;;;;;;;8.83;7.70;;;;;;;10.94;100.00;100552.09;1655490;85;21106;-85
2022/05/15 01:33:41;;;;;;;9.40;6.55;;;;;;;10.91;100.00;100556.25;1657172;85;21148;-85
2022/05/15 01:36:08;;;;;;;7.05;6.33;;;;;;;10.88;100.00;100549.52;1656675;85;21079;-83
2022/05/15 01:38:36;;;;;;;8.38;7.05;;;;;;;10.86;100.00;100552.70;1656563;85;21576;-83
2022/05/15 01:41:03;;;;;;;11.03;7.05;;;;;;;10.89;100.00;100554.23;1657508;85;21085;-84
2022/05/15 01:43:31;;;;;;;7.22;6.53;;;;;;;10.89;100.00;100548.56;1697622;84;21165;-83
2022/05/15 01:46:00;;;;;;;7.15;6.55;;;;;;;10.83;100.00;100550.32;1697182;83;21236;-83
2022/05/15 01:48:30;;;;;;;6.78;6.10;;;;;;;10.76;100.00;100554.83;1697487;84;21070;-83
2022/05/15 01:50:58;;;;;;;10.10;6.83;;;;;;;10.68;100.00;100558.02;1694398;83;21007;-84
2022/05/15 01:53:27;;;;;;;8.25;6.95;;;;;;;10.58;100.00;100563.10;1697668;84;21118;-83
2022/05/15 01:55:54;;;;;;;8.33;7.12;;;;;;;10.51;100.00;100561.91;1679293;84;21583;-83
2022/05/15 01:58:22;;;;;;;7.67;6.37;;;;;;;10.46;100.00;100560.95;1692750;84;21156;-82
2022/05/15 02:00:50;;;;;;;7.53;6.78;;;;;;;10.41;100.00;100561.30;1692521;84;21039;-85
2022/05/15 02:03:18;;;;;;;10.30;6.83;;;;;;;10.37;100.00;100557.73;1692861;84;21564;-86
2022/05/15 02:05:45;;;;;;;8.90;6.55;;;;;;;10.33;100.00;100561.02;1692733;84;21045;-83
2022/05/15 02:08:12;;;;;;;6.65;6.05;;;;;;;10.27;100.00;100562.78;1693110;83;21042;-84
2022/05/15 02:10:40;;;;;;;6.70;6.10;;;;;;;10.22;100.00;100565.73;1657342;85;21122;-83
2022/05/15 02:13:07;;;;;;;7.15;5.97;;;;;;;10.18;100.00;100563.47;1657337;85;21038;-82
2022/05/15 02:15:35;;;;;;;7.97;6.30;;;;;;;10.16;100.00;100565.34;1655919;85;21019;-83
2022/05/15 02:18:04;;;;;;;6.55;5.90;;;;;;;10.17;100.00;100567.00;1639693;85;21102;-83
2022/05/15 02:20:31;;;;;;;7.95;6.45;;;;;;;10.15;100.00;100564.52;1658389;85;21096;-83
2022/05/15 02:22:58;;;;;;;7.17;5.75;;;;;;;10.14;100.00;100561.56;1693228;83;21246;-81
2022/05/15 02:25:27;;;;;;;7.67;5.87;;;;;;;10.13;100.00;100565.59;1656698;85;20969;-83
2022/05/15 02:27:55;;;;;;;6.85;5.78;;;;;;;10.12;100.00;100571.73;1692642;84;21197;-82
2022/05/15 02:30:23;;;;;;;6.78;5.83;;;;;;;10.08;100.00;100569.34;1658812;85;21043;-82
2022/05/15 02:32:51;;;;;;;9.63;5.60;;;;;;;10.07;100.00;100575.48;1659339;85;21537;-83
2022/05/15 02:35:19;;;;;;;9.15;5.60;;;;;;;10.05;100.00;100573.95;1658479;85;21179;-83
2022/05/15 02:37:48;;;;;;;7.25;5.62;;;;;;;10.01;100.00;100572.05;1657220;84;21541;-83
2022/05/15 02:40:21;;;;;;;7.42;6.08;;;;;;;10.02;100.00;100582.81;1639653;86;21094;-82
2022/05/15 02:42:49;;;;;;;6.03;5.42;;;;;;;10.02;100.00;100586.72;1698002;83;21058;-82
2022/05/15 02:45:16;;;;;;;9.15;6.00;;;;;;;10.02;100.00;100585.86;1697590;84;21671;-83
2022/05/15 02:47:44;;;;;;;6.78;5.60;;;;;;;10.03;100.00;100594.88;1658525;85;21815;-83
2022/05/15 02:52:58;;;;;;;7.33;5.47;;;;;;;10.11;100.00;100603.41;1693177;84;21494;-83
2022/05/15 02:55:25;;;;;;;8.08;5.42;;;;;;;10.14;100.00;100604.49;1692787;84;21055;-82
2022/05/15 02:57:54;;;;;;;6.95;5.53;;;;;;;10.16;100.00;100601.31;1693290;84;21086;-85
2022/05/15 03:00:25;;;;;;;7.80;5.42;;;;;;;10.18;100.00;100599.89;1692997;84;21235;-84
2022/05/15 03:02:52;;;;;;;6.03;5.10;;;;;;;10.20;100.00;100598.83;1693804;83;21486;-82
2022/05/15 03:05:20;;;;;;;7.90;5.40;;;;;;;10.22;100.00;100600.86;1692922;83;21059;-82
2022/05/15 03:07:49;;;;;;;7.62;5.33;;;;;;;10.25;100.00;100599.80;1693077;84;21601;-83
2022/05/15 03:10:21;;;;;;;8.58;5.22;;;;;;;10.25;100.00;100600.61;1693152;83;21445;-83
2022/05/15 03:12:49;;;;;;;11.80;5.22;;;;;;;10.25;100.00;100606.30;1693062;84;21556;-83
2022/05/15 03:15:19;;;;;;;8.50;5.67;;;;;;;10.28;100.00;100610.44;1692818;84;21027;-82
2022/05/15 03:17:46;;;;;;;9.05;5.67;;;;;;;10.30;100.00;100605.48;1692624;84;21023;-82
2022/05/15 03:20:16;;;;;;;10.32;5.28;;;;;;;10.36;100.00;100610.70;1658975;85;21478;-84
2022/05/15 03:22:43;;;;;;;7.17;5.33;;;;;;;10.39;100.00;100606.13;1658495;85;21402;-85
2022/05/15 03:25:10;;;;;;;6.75;5.55;;;;;;;10.46;100.00;100609.57;1693144;84;22050;-85
2022/05/15 03:27:39;;;;;;;6.80;5.50;;;;;;;10.51;100.00;100608.29;1692735;83;21027;-86
2022/05/15 03:30:08;;;;;;;7.67;5.62;;;;;;;10.56;100.00;100614.45;1649873;84;21529;-85
2022/05/15 03:32:35;;;;;;;6.20;5.60;;;;;;;10.63;100.00;100613.05;1693715;84;21087;-84
2022/05/15 03:35:04;;;;;;;8.20;5.33;;;;;;;10.68;100.00;100612.70;1692256;84;21089;-84
2022/05/15 03:37:31;;;;;;;7.62;5.12;;;;;;;10.77;100.00;100621.13;1691991;84;21181;-84
2022/05/15 03:39:58;;;;;;;7.30;5.37;;;;;;;10.85;100.00;100612.25;1692525;83;21031;-83
2022/05/15 03:42:28;;;;;;;6.37;5.50;;;;;;;10.93;100.00;100616.89;1692563;84;21588;-84
2022/05/15 03:44:55;;;;;;;8.35;5.72;;;;;;;11.03;100.00;100614.40;1692066;84;21079;-84
2022/05/15 03:47:23;;;;;;;8.88;5.92;;;;;;;11.10;100.00;100612.12;1692507;83;21169;-84
2022/05/15 03:49:50;;;;;;;8.65;5.70;;;;;;;11.17;100.00;100606.83;1672586;84;21159;-83
2022/05/15 03:52:18;;;;;;;8.40;6.00;;;;;;;11.25;100.00;100605.75;1692090;84;21502;-82
2022/05/15 03:54:46;;;;;;;9.48;5.90;;;;;;;11.33;100.00;100609.89;1692418;84;21071;-82
2022/05/15 03:57:14;;;;;;;9.03;6.12;;;;;;;11.44;100.00;100608.20;1692246;84;21579;-83
2022/05/15 03:59:42;;;;;;;9.15;6.58;;;;;;;11.53;100.00;100611.38;1692379;84;21149;-82
2022/05/15 04:02:10;;;;;;;9.10;5.85;;;;;;;11.63;100.00;100613.63;1692185;84;21294;-84
2022/05/15 04:04:39;;;;;;;8.48;6.78;;;;;;;11.74;100.00;100614.06;1692285;84;21056;-85
2022/05/15 04:07:06;;;;;;;8.95;6.25;;;;;;;11.84;100.00;100613.69;1692913;83;21075;-83
2022/05/15 04:09:38;;;;;;;11.05;6.67;;;;;;;11.95;100.00;100610.20;1692676;84;21109;-85
2022/05/15 04:12:11;;;;;;;10.65;6.60;;;;;;;12.04;100.00;100607.34;1692691;84;21055;-84
2022/05/15 04:14:38;;;;;;;9.33;6.35;;;;;;;12.13;100.00;100612.30;1692738;84;22003;-83
2022/05/15 04:17:06;;;;;;;8.23;6.20;;;;;;;12.23;100.00;100610.58;1692920;84;21047;-85
2022/05/15 04:19:37;;;;;;;9.48;6.50;;;;;;;12.36;100.00;100614.80;1692551;84;21297;-83
2022/05/15 04:22:05;;;;;;;10.72;6.35;;;;;;;12.47;100.00;100612.11;1672622;84;21086;-84
2022/05/15 04:24:35;;;;;;;8.23;5.50;;;;;;;12.57;100.00;100622.15;1692690;84;21055;-84
2022/05/15 04:27:03;;;;;;;8.18;5.37;;;;;;;12.66;100.00;100621.84;1692777;84;21141;-85
2022/05/15 04:29:31;;;;;;;7.00;5.00;;;;;;;12.74;100.00;100618.59;1692587;84;21083;-84
2022/05/15 04:31:58;;;;;;;6.62;5.22;;;;;;;12.81;100.00;100631.98;1692719;84;21048;-83
2022/05/15 04:34:28;;;;;;;7.15;5.15;;;;;;;12.84;100.00;100628.62;1692607;84;21105;-84
2022/05/15 04:36:55;;;;;;;7.33;4.92;;;;;;;12.89;100.00;100630.36;1693355;84;21145;-85
2022/05/15 04:39:23;;;;;;;5.95;4.97;;;;;;;12.94;100.00;100628.18;1697524;83;21329;-85
2022/05/15 04:41:50;;;;;;;9.65;5.30;;;;;;;13.03;100.00;100629.20;1693276;84;21050;-85
2022/05/15 04:44:17;;;;;;;6.08;5.20;;;;;;;13.11;100.00;100628.52;1658941;85;21541;-85
2022/05/15 04:46:45;;;;;;;9.38;5.80;;;;;;;13.13;100.00;100625.80;1697367;83;21020;-83
2022/05/15 04:49:12;;;;;;;9.50;6.00;;;;;;;13.19;100.00;100627.39;1697542;83;21023;-84
2022/05/15 04:51:40;;;;;;;9.35;5.62;;;;;;;13.22;100.00;100628.94;1697546;84;21118;-84
2022/05/15 04:54:07;;;;;;;10.25;6.87;;;;;;;13.24;100.00;100633.06;1678933;83;21075;-84
2022/05/15 04:56:35;;;;;;;10.40;6.58;;;;;;;13.26;100.00;100618.05;1692600;84;21609;-84
2022/05/15 04:59:03;;;;;;;9.50;6.62;;;;;;;13.27;100.00;100626.73;1692628;84;21012;-84
2022/05/15 05:01:31;;;;;;;10.03;7.40;;;;;;;13.32;100.00;100615.89;1639125;86;21040;-85
2022/05/15 05:03:58;;;;;;;9.55;7.22;;;;;;;13.40;100.00;100616.08;1697069;83;21142;-85
2022/05/15 05:06:28;;;;;;;9.18;6.92;;;;;;;13.41;100.00;100613.31;1692646;84;21105;-85
2022/05/15 05:08:55;;;;;;;10.32;7.05;;;;;;;13.46;100.00;100609.00;1692830;83;21496;-85
2022/05/15 05:11:23;;;;;;;10.75;7.22;;;;;;;13.51;100.00;100602.05;1692927;83;20988;-82
2022/05/15 05:13:50;;;;;;;8.03;6.92;;;;;;;13.55;100.00;100606.88;1692457;83;21055;-84
2022/05/15 05:16:18;;;;;;;11.25;7.40;;;;;;;13.62;100.00;100607.15;1692431;84;21147;-84
2022/05/15 05:18:45;;;;;;;10.15;7.45;;;;;;;13.67;100.00;100595.81;1692655;84;21699;-84
2022/05/15 05:21:13;;;;;;;10.60;7.25;;;;;;;13.77;100.00;100599.74;1672229;84;21576;-85
2022/05/15 05:23:41;;;;;;;9.73;7.12;;;;;;;13.91;100.00;100602.45;1638740;85;21051;-84
2022/05/15 05:26:08;;;;;;;10.08;6.80;;;;;;;14.03;100.00;100596.09;1616324;85;21118;-84
2022/05/15 05:28:36;;;;;;;8.85;6.53;;;;;;;14.14;100.00;100587.26;1664845;85;21188;-85
2022/05/15 05:31:06;;;;;;;9.00;6.80;;;;;;;14.22;100.00;100588.38;1664727;85;21079;-86
2022/05/15 05:33:33;;;;;;;8.10;7.25;;;;;;;14.28;100.00;100593.05;1664629;86;21027;-85
2022/05/15 05:36:00;;;;;;;9.33;6.53;;;;;;;14.38;100.00;100592.53;1664705;86;21657;-85
2022/05/15 05:38:27;;;;;;;10.58;6.40;;;;;;;14.46;100.00;100593.97;1657528;84;21025;-84
2022/05/15 05:40:54;;;;;;;10.65;7.20;;;;;;;14.55;100.00;100595.39;1630074;86;21152;-85
2022/05/15 05:43:22;;;;;;;12.00;6.83;;;;;;;14.62;100.00;100592.58;1659433;85;21081;-85
2022/05/15 05:45:49;;;;;;;8.33;6.10;;;;;;;14.70;100.00;100592.72;1659604;84;21094;-84
2022/05/15 05:48:16;;;;;;;8.05;5.67;;;;;;;14.75;100.00;100593.11;1660417;85;21069;-84
2022/05/15 05:50:43;;;;;;;7.35;5.80;;;;;;;14.80;100.00;100590.88;1660104;86;21539;-85
2022/05/15 05:53:10;;;;;;;11.33;6.10;;;;;;;14.87;100.00;100595.53;1657333;85;21496;-83
2022/05/15 05:55:38;;;;;;;9.68;5.92;;;;;;;14.95;100.00;100598.27;1658328;85;21118;-84
2022/05/15 05:58:05;;;;;;;7.05;5.20;;;;;;;14.99;100.00;100597.02;1663411;84;21073;-84
2022/05/15 06:00:38;;;;;;;5.58;4.72;;;;;;;15.02;100.00;100599.83;1588350;86;21091;-84
2022/05/15 06:05:53;;;;;;;10.08;4.92;;;;;;;15.14;100.00;100596.87;1651915;85;21786;-85
2022/05/15 06:08:20;;;;;;;7.50;4.60;;;;;;;15.27;100.00;100597.00;1695620;84;21081;-86
2022/05/15 06:10:49;;;;;;;8.70;4.95;;;;;;;15.35;100.00;100589.73;1699173;83;21550;-85
2022/05/15 06:13:18;;;;;;;5.17;4.17;;;;;;;15.41;100.00;100597.84;1699376;84;21342;-85
2022/05/15 06:15:46;;;;;;;7.10;4.50;;;;;;;15.45;100.00;100593.13;1661920;84;21058;-85
2022/05/15 06:18:13;;;;;;;8.65;4.50;;;;;;;15.54;100.00;100599.27;1629543;86;21308;-85
2022/05/15 06:20:40;;;;;;;5.75;4.00;;;;;;;15.62;100.00;100603.30;1659397;85;21129;-86
2022/05/15 06:23:08;;;;;;;5.30;4.45;;;;;;;15.66;100.00;100598.57;1659593;84;21058;-84
2022/05/15 06:25:35;;;;;;;7.03;4.50;;;;;;;15.65;100.00;100596.45;1659768;85;21062;-85
2022/05/15 06:28:05;;;;;;;6.80;4.67;;;;;;;15.68;100.00;100600.56;1659953;85;21081;-84
2022/05/15 06:30:32;;;;;;;5.50;4.25;;;;;;;15.73;100.00;100604.40;1657230;84;21814;-85
2022/05/15 06:33:09;;;;;;;7.62;3.87;;;;;;;15.81;100.00;100606.77;1705590;82;21077;-87
2022/05/15 06:35:38;;;;;;;6.30;3.85;;;;;;;15.89;100.00;100602.43;1637405;84;21168;-87
2022/05/15 06:38:07;;;;;;;6.22;4.00;;;;;;;15.99;100.00;100614.16;1672868;84;21074;-86
2022/05/15 06:40:35;;;;;;;5.58;3.72;;;;;;;16.06;100.00;100613.89;1668693;84;21022;-88
2022/05/15 06:43:03;;;;;;;5.58;3.72;;;;;;;16.08;100.00;100611.94;1650111;84;21133;-88
2022/05/15 06:45:31;;;;;;;6.53;3.60;;;;;;;16.14;100.00;100604.45;1674158;83;21584;-87
2022/05/15 06:47:59;;;;;;;7.58;3.60;;;;;;;16.17;100.00;100610.23;1647184;85;21540;-88
2022/05/15 06:50:26;;;;;;;7.45;4.17;;;;;;;16.21;100.00;100609.43;1646872;87;21109;-87
2022/05/15 06:52:53;;;;;;;5.33;3.45;;;;;;;16.26;100.00;100608.48;1647290;87;21097;-88
2022/05/15 06:55:23;;;;;;;6.30;3.10;;;;;;;16.30;100.00;100608.52;1637414;85;21856;-87
2022/05/15 06:57:50;;;;;;;7.22;3.35;;;;;;;16.23;100.00;100598.27;1626266;86;21133;-86
2022/05/15 07:00:28;;;;;;;7.05;3.55;;;;;;;16.19;100.00;100607.44;1644258;86;21024;-87
2022/05/15 07:02:55;;;;;;;3.83;2.98;;;;;;;16.21;100.00;100601.05;1648543;85;21539;-90
2022/05/15 07:05:30;;;;;;;5.17;3.35;;;;;;;16.29;100.00;100606.87;1630019;85;21037;-90
2022/05/15 07:07:57;;;;;;;7.97;3.70;;;;;;;16.43;100.00;100606.78;1640061;86;21262;-91
2022/05/15 07:10:25;;;;;;;6.75;3.52;;;;;;;16.56;100.00;100611.16;1665960;84;21097;-91
2022/05/15 07:12:52;;;;;;;4.25;3.33;;;;;;;16.54;100.00;100607.85;1686668;84;21035;-89
2022/05/15 07:15:19;;;;;;;5.75;3.00;;;;;;;16.53;100.00;100615.90;1665583;83;21129;-90
2022/05/15 07:17:46;;;;;;;3.52;3.20;;;;;;;16.53;100.00;100604.88;1625860;86;21629;-91
2022/05/15 07:20:15;;;;;;;5.40;3.08;;;;;;;16.62;100.00;100612.34;1643330;86;21145;-92
2022/05/15 07:22:44;;;;;;;3.40;3.10;;;;;;;16.77;100.00;100617.03;1633372;84;21600;-93
2022/05/15 07:25:14;;;;;;;3.95;3.08;;;;;;;16.76;100.00;100614.05;1642804;85;21113;-92
2022/05/15 07:27:42;;;;;;;5.87;3.65;;;;;;;16.66;100.00;100604.97;1663844;83;21067;-92
2022/05/15 07:30:10;;;;;;;4.50;3.35;;;;;;;16.71;100.00;100611.89;1613558;87;21062;-92
2022/05/15 07:32:37;;;;;;;4.58;2.92;;;;;;;16.77;100.00;100607.32;1645573;84;21112;-92
2022/05/15 07:35:09;;;;;;;4.25;3.17;;;;;;;16.63;100.00;100616.59;1606060;85;21075;-91
2022/05/15 07:37:41;;;;;;;8.35;3.22;;;;;;;16.62;100.00;100621.55;1661964;85;21090;-93
2022/05/15 07:40:09;;;;;;;6.97;2.87;;;;;;;16.75;100.00;100616.34;1669150;85;21592;-93
2022/05/15 07:42:47;;;;;;;5.80;2.95;;;;;;;16.62;100.00;100625.49;1629326;86;21102;-93
2022/05/15 07:45:17;;;;;;;5.17;3.20;;;;;;;16.49;100.00;100624.58;1681624;83;21224;-92
2022/05/15 07:47:44;;;;;;;4.53;2.98;;;;;;;16.60;100.00;100630.54;1664978;83;21018;-93
2022/05/15 07:50:14;;;;;;;4.37;3.02;;;;;;;16.71;100.00;100625.84;1645284;84;21097;-94
2022/05/15 07:52:44;;;;;;;5.20;3.10;;;;;;;16.63;100.00;100637.63;1664534;84;21077;-94
2022/05/15 07:55:14;;;;;;;4.33;2.80;;;;;;;16.61;100.00;100633.04;1648166;84;21050;-94
2022/05/15 07:57:41;;;;;;;3.87;3.17;;;;;;;16.74;100.00;100640.52;1692313;84;21161;-94
2022/05/15 08:00:14;;;;;;;3.72;2.60;;;;;;;16.90;100.00;100632.38;1687478;84;21051;-94
2022/05/15 08:02:42;;;;;;;3.15;2.55;;;;;;;17.03;100.00;100640.69;1667526;84;21643;-95
2022/05/15 08:08:09;;;;;;;4.67;2.60;;;;;;;17.35;100.00;100639.98;1647873;87;21038;-95
2022/05/15 08:10:41;;;;;;;4.42;2.30;;;;;;;17.30;100.00;100644.91;1673327;83;21242;-96
2022/05/15 08:13:18;;;;;;;4.22;2.35;;;;;;;17.37;100.00;100641.64;1642400;86;21042;-95
2022/05/15 08:15:48;;;;;;;5.12;2.58;;;;;;;17.53;100.00;100636.93;1694775;83;21066;-96
2022/05/15 08:24:00;;;;;;;2.92;2.33;;;;;;;17.64;100.00;100640.09;1665566;84;21137;-96
2022/05/15 08:26:29;;;;;;;4.60;2.50;;;;;;;17.76;100.00;100631.86;1665494;83;21050;-96
2022/05/15 08:28:57;;;;;;;2.67;2.30;;;;;;;17.83;100.00;100632.86;1624660;87;21093;-96
2022/05/15 08:31:26;;;;;;;3.30;2.30;;;;;;;17.80;100.00;100639.78;1664924;84;21086;-95
2022/05/15 08:33:54;;;;;;;2.05;1.87;;;;;;;17.65;100.00;100640.42;1624036;87;21089;-96
2022/05/15 08:36:23;;;;;;;2.60;1.95;;;;;;;17.50;100.00;100640.20;1678079;83;21097;-96
2022/05/15 08:38:51;;;;;;;2.95;2.17;;;;;;;17.26;100.00;100640.97;1648260;85;21042;-96
2022/05/15 08:41:41;;;;;;;3.70;2.10;;;;;;;17.12;100.00;100643.70;1674986;84;21059;-96
2022/05/15 08:44:18;;;;;;;4.67;2.22;;;;;;;17.00;100.00;100643.15;1679712;84;20995;-96
2022/05/15 08:46:54;;;;;;;6.45;2.77;;;;;;;16.91;100.00;100651.09;1680965;83;21071;-96
2022/05/15 08:49:43;;;;;;;5.65;3.10;;;;;;;16.78;100.00;100643.16;1675891;83;21244;-95
2022/05/15 08:52:20;;;;;;;2.27;2.00;;;;;;;16.71;100.00;100642.94;1668544;83;21090;-96
2022/05/15 08:55:06;;;;;;;3.15;2.10;;;;;;;16.75;100.00;100631.62;1653573;83;21555;-92
2022/05/15 08:57:54;;;;;;;2.47;2.25;;;;;;;16.65;100.00;100641.44;1651939;85;21097;-95
2022/05/15 09:00:31;;;;;;;5.20;2.05;;;;;;;16.65;100.00;100637.50;1676154;84;21493;-94
2022/05/15 09:03:19;;;;;;;4.20;2.27;;;;;;;16.96;100.00;100640.48;1647542;85;21200;-95
2022/05/15 09:06:26;;;;;;;3.60;1.92;;;;;;;17.20;100.00;100635.00;1639906;84;21034;-93
2022/05/15 09:09:30;;;;;;;4.50;1.98;;;;;;;17.20;100.00;100638.94;1612153;86;21122;-94
2022/05/15 09:12:16;;;;;;;3.47;1.87;;;;;;;17.16;100.00;100641.06;1629208;87;21078;-96
2022/05/15 09:15:08;;;;;;;3.25;2.02;;;;;;;17.46;100.00;100640.69;1668082;83;21003;-95
2022/05/15 09:17:53;;;;;;;2.98;1.70;;;;;;;17.60;100.00;100637.42;1645202;86;21302;-93
2022/05/15 09:20:51;;;;;;;3.77;1.92;;;;;;;17.41;100.00;100639.84;1647734;85;20947;-90
2022/05/15 09:23:42;;;;;;;4.33;1.95;;;;;;;17.43;100.00;100629.15;1678421;85;21075;-92
2022/05/15 09:26:30;;;;;;;3.87;2.10;;;;;;;17.56;100.00;100631.33;1661727;85;21055;-91
2022/05/15 09:29:01;;;;;;;5.95;2.05;;;;;;;17.53;100.00;100628.53;1706652;83;21043;-92
2022/05/15 09:31:38;;;;;;;3.52;2.05;;;;;;;17.45;100.00;100631.14;1706803;83;21822;-94
2022/05/15 09:34:26;;;;;;;2.98;1.70;;;;;;;17.48;100.00;100631.64;1706575;84;21070;-95
2022/05/15 09:39:51;;;;;;;4.37;2.08;;;;;;;17.86;100.00;100627.27;1647021;85;21050;-94
2022/05/15 09:45:22;;;;;;;2.12;1.50;;;;;;;18.32;100.00;100624.67;1651574;85;21259;-95
2022/05/15 09:48:01;;;;;;;3.70;1.57;;;;;;;18.45;100.00;100617.09;1668043;85;21102;-94
2022/05/15 09:50:52;;;;;;;2.42;1.75;;;;;;;18.53;100.00;100611.81;1664606;86;21039;-94
2022/05/15 09:53:43;;;;;;;1.72;1.60;;;;;;;18.42;100.00;100617.42;1664351;86;21105;-93
2022/05/15 09:56:23;;;;;;;3.72;2.12;;;;;;;17.94;100.00;100635.69;1624874;86;21683;-94
2022/05/15 09:59:10;;;;;;;1.87;1.60;;;;;;;17.75;100.00;100627.10;1594740;88;21856;-92
2022/05/15 10:01:56;;;;;;;2.45;2.12;;;;;;;17.71;100.00;100631.53;1615419;88;21118;-93
2022/05/15 10:04:28;;;;;;;2.85;2.05;;;;;;;17.58;100.00;100621.47;1622914;87;21027;-94
2022/05/15 10:07:02;;;;;;;3.22;1.90;;;;;;;17.47;100.00;100630.49;1583882;87;21609;-95
2022/05/15 10:09:37;;;;;;;3.52;1.92;;;;;;;17.48;100.00;100632.95;1581213;88;21166;-92
2022/05/15 10:12:30;;;;;;;3.50;2.02;;;;;;;17.76;100.00;100623.96;1643433;86;21012;-94
2022/05/15 10:15:01;;;;;;;3.25;2.05;;;;;;;18.11;100.00;100620.23;1642762;83;21055;-94
2022/05/15 10:17:29;;;;;;;3.10;2.00;;;;;;;18.39;100.00;100616.42;1593741;87;21034;-94
2022/05/15 10:20:08;;;;;;;5.20;2.33;;;;;;;18.62;100.00;100609.16;1686515;84;21062;-93
2022/05/15 10:22:59;;;;;;;3.00;2.25;;;;;;;18.82;100.00;100613.05;1646867;85;21539;-93
2022/05/15 10:25:45;;;;;;;3.58;2.20;;;;;;;18.84;100.00;100612.39;1609519;85;21116;-94
2022/05/15 10:28:48;;;;;;;3.12;2.00;;;;;;;18.98;100.00;100603.45;1644635;87;21046;-93
2022/05/15 10:31:35;;;;;;;3.50;1.90;;;;;;;19.24;100.00;100609.77;1646771;87;21082;-94
2022/05/15 10:34:12;;;;;;;3.22;1.98;;;;;;;19.42;100.00;100604.25;1671434;85;21635;-93
2022/05/15 10:37:03;;;;;;;2.62;1.95;;;;;;;19.15;100.00;100608.19;1643598;86;21133;-93
2022/05/15 10:40:08;;;;;;;5.17;2.10;;;;;;;18.84;100.00;100610.23;1615769;87;21181;-92
2022/05/15 10:42:43;;;;;;;4.33;2.10;;;;;;;18.55;100.00;100614.27;1654117;86;21078;-94
2022/05/15 10:45:57;;;;;;;5.40;2.42;;;;;;;18.23;100.00;100624.67;1692882;83;21142;-94
2022/05/15 10:49:05;;;;;;;4.20;3.20;;;;;;;18.00;100.00;100614.47;1707003;83;21108;-95
2022/05/15 10:52:01;;;;;;;5.47;2.20;;;;;;;17.74;100.00;100621.50;1706421;83;21552;-94
2022/05/15 10:58:20;;;;;;;3.72;2.10;;;;;;;18.23;100.00;100611.50;1684104;84;21038;-94
2022/05/15 11:01:08;;;;;;;3.45;2.80;;;;;;;18.47;100.00;100607.19;1702753;83;21049;-93
2022/05/15 11:04:03;;;;;;;3.95;3.00;;;;;;;18.47;100.00;100611.65;1648342;84;21058;-94
2022/05/15 11:07:03;;;;;;;3.25;2.35;;;;;;;18.47;100.00;100601.91;1641918;84;21101;-95
2022/05/15 11:09:47;;;;;;;5.25;2.65;;;;;;;18.42;100.00;100609.03;1706590;84;21154;-95
2022/05/15 11:12:37;;;;;;;3.85;2.62;;;;;;;18.23;100.00;100619.41;1706552;84;21061;-95
2022/05/15 11:15:13;;;;;;;3.98;2.58;;;;;;;18.02;100.00;100626.98;1705549;84;21101;-93
2022/05/15 11:17:49;;;;;;;3.42;2.17;;;;;;;17.82;100.00;100633.87;1691773;84;21114;-92
2022/05/15 11:20:26;;;;;;;5.05;2.60;;;;;;;17.62;100.00;100618.35;1653383;83;21149;-93
2022/05/15 11:23:08;;;;;;;3.35;2.60;;;;;;;17.38;100.00;100627.50;1624683;87;21131;-93
2022/05/15 11:25:56;;;;;;;3.62;2.55;;;;;;;17.11;100.00;100633.31;1647993;83;21594;-91
2022/05/15 11:28:41;;;;;;;8.18;2.42;;;;;;;16.84;100.00;100641.20;1622499;87;21113;-94
2022/05/15 11:31:13;;;;;;;4.67;2.10;;;;;;;16.33;100.00;100642.36;1645080;86;21547;-93
2022/05/15 11:34:02;;;;;;;6.58;2.70;;;;;;;15.60;100.00;100659.03;1622701;87;21106;-91
2022/05/15 11:36:48;;;;;;;4.20;2.30;;;;;;;15.03;100.00;100679.66;1664033;83;21150;-92
2022/05/15 11:39:24;;;;;;;2.62;2.10;;;;;;;14.62;100.00;100668.57;1671762;83;21591;-92
2022/05/15 11:42:17;;;;;;;3.22;1.92;;;;;;;14.40;100.00;100674.44;1638029;85;21579;-92
2022/05/15 11:44:47;;;;;;;5.40;2.35;;;;;;;14.24;100.00;100660.60;1636744;87;21172;-94
2022/05/15 11:47:29;;;;;;;2.60;2.08;;;;;;;14.20;100.00;100659.20;1633807;86;21066;-94
2022/05/15 11:50:03;;;;;;;3.42;2.10;;;;;;;14.18;100.00;100662.47;1633947;86;21169;-91
2022/05/15 11:52:56;;;;;;;2.90;2.55;;;;;;;14.15;100.00;100662.73;1664209;84;21065;-93
2022/05/15 11:55:49;;;;;;;5.97;2.65;;;;;;;14.15;100.00;100660.11;1664284;84;21078;-92
2022/05/15 11:58:37;;;;;;;3.35;2.42;;;;;;;14.12;100.00;100644.66;1622578;87;21474;-94
2022/05/15 12:01:26;;;;;;;5.03;2.50;;;;;;;14.11;100.00;100639.08;1677671;83;21050;-94
2022/05/15 12:03:58;;;;;;;4.62;2.58;;;;;;;14.16;100.00;100642.95;1704647;83;21137;-93
2022/05/15 12:06:48;;;;;;;3.30;2.30;;;;;;;14.29;100.00;100628.76;1680227;83;21493;-93